createdAt,value
2024-05-09T00:00:22.508Z,0.00
2024-05-09T00:01:18.643Z,0.00
2024-05-09T00:02:17.692Z,0.00
2024-05-09T00:03:17.585Z,0.00
2024-05-09T00:04:17.596Z,0.00
2024-05-09T00:05:17.697Z,0.00
2024-05-09T00:06:17.598Z,0.00
2024-05-09T00:07:17.526Z,0.00
2024-05-09T00:08:17.619Z,0.00
2024-05-09T00:09:17.510Z,0.00
2024-05-09T00:10:25.368Z,0.00
2024-05-09T00:11:18.564Z,0.00
2024-05-09T00:12:17.638Z,0.00
2024-05-09T00:13:17.472Z,0.00
2024-05-09T00:14:17.600Z,0.00
2024-05-09T00:15:17.457Z,0.00
2024-05-09T00:16:17.450Z,0.00
2024-05-09T00:17:17.559Z,0.00
2024-05-09T00:18:17.569Z,0.00
2024-05-09T00:19:17.478Z,0.00
2024-05-09T00:20:24.158Z,0.00
2024-05-09T00:21:18.384Z,0.00
2024-05-09T00:22:17.354Z,0.00
2024-05-09T00:23:17.388Z,0.00
2024-05-09T00:24:17.334Z,0.00
2024-05-09T00:25:17.343Z,0.00
2024-05-09T00:26:17.465Z,0.00
2024-05-09T00:27:17.309Z,0.00
2024-05-09T00:28:17.290Z,0.00
2024-05-09T00:29:17.319Z,0.00
2024-05-09T00:30:24.389Z,0.00
2024-05-09T00:31:18.271Z,0.00
2024-05-09T00:32:17.516Z,0.00
2024-05-09T00:33:17.485Z,0.00
2024-05-09T00:34:17.370Z,0.00
2024-05-09T00:35:17.225Z,0.00
2024-05-09T00:36:17.222Z,0.00
2024-05-09T00:37:17.215Z,0.00
2024-05-09T00:38:17.248Z,0.00
2024-05-09T00:39:17.167Z,0.00
2024-05-09T00:40:26.502Z,0.00
2024-05-09T00:41:19.759Z,0.00
2024-05-09T00:42:17.134Z,0.00
2024-05-09T00:43:17.139Z,0.00
2024-05-09T00:44:17.205Z,0.00
2024-05-09T00:45:17.115Z,0.00
2024-05-09T00:46:17.111Z,0.00
2024-05-09T00:47:17.237Z,0.00
2024-05-09T00:48:19.795Z,0.00
2024-05-09T00:49:17.206Z,0.00
2024-05-09T00:50:22.955Z,0.00
2024-05-09T00:51:18.164Z,0.00
2024-05-09T00:52:17.047Z,0.00
2024-05-09T00:53:17.079Z,0.00
2024-05-09T00:54:17.002Z,0.00
2024-05-09T00:55:16.995Z,0.00
2024-05-09T00:56:17.031Z,0.00
2024-05-09T00:57:16.981Z,0.00
2024-05-09T00:58:16.960Z,0.00
2024-05-09T00:59:16.980Z,0.00
2024-05-09T01:00:26.203Z,0.00
2024-05-09T01:01:18.011Z,0.00
2024-05-09T01:02:17.109Z,0.00
2024-05-09T01:03:17.186Z,0.00
2024-05-09T01:04:16.951Z,0.00
2024-05-09T01:05:17.042Z,0.00
2024-05-09T01:06:16.873Z,0.00
2024-05-09T01:07:16.874Z,0.00
2024-05-09T01:08:16.892Z,0.00
2024-05-09T01:09:16.838Z,0.00
2024-05-09T01:10:21.310Z,0.00
2024-05-09T01:11:17.956Z,0.00
2024-05-09T01:12:16.938Z,0.00
2024-05-09T01:13:16.811Z,0.00
2024-05-09T01:14:16.861Z,0.00
2024-05-09T01:15:16.774Z,0.00
2024-05-09T01:16:16.766Z,0.00
2024-05-09T01:17:16.891Z,0.00
2024-05-09T01:18:16.952Z,0.00
2024-05-09T01:19:16.938Z,0.00
2024-05-09T01:20:22.857Z,0.00
2024-05-09T01:21:17.820Z,0.00
2024-05-09T01:22:16.704Z,0.00
2024-05-09T01:23:16.908Z,0.00
2024-05-09T01:24:16.681Z,0.00
2024-05-09T01:25:16.666Z,0.00
2024-05-09T01:26:16.734Z,0.00
2024-05-09T01:27:16.642Z,0.00
2024-05-09T01:28:16.714Z,0.00
2024-05-09T01:29:16.653Z,0.00
2024-05-09T01:30:21.094Z,0.00
2024-05-09T01:31:17.596Z,0.00
2024-05-09T01:32:16.671Z,0.00
2024-05-09T01:33:16.776Z,0.00
2024-05-09T01:34:16.652Z,0.00
2024-05-09T01:35:16.595Z,0.00
2024-05-09T01:36:16.557Z,0.00
2024-05-09T01:37:16.537Z,0.00
2024-05-09T01:38:16.620Z,0.00
2024-05-09T01:39:16.513Z,0.00
2024-05-09T01:40:22.076Z,0.00
2024-05-09T01:41:17.524Z,0.00
2024-05-09T01:42:16.492Z,0.00
2024-05-09T01:43:16.507Z,0.00
2024-05-09T01:44:16.526Z,0.00
2024-05-09T01:45:16.445Z,0.00
2024-05-09T01:46:16.438Z,0.00
2024-05-09T01:47:16.565Z,0.00
2024-05-09T01:48:16.528Z,0.00
2024-05-09T01:49:16.626Z,0.00
2024-05-09T01:50:16.705Z,0.00
2024-05-09T01:51:16.485Z,0.00
2024-05-09T01:52:16.372Z,0.00
2024-05-09T01:53:16.388Z,0.00
2024-05-09T01:54:16.350Z,0.00
2024-05-09T01:55:16.344Z,0.00
2024-05-09T01:56:16.425Z,0.00
2024-05-09T01:57:16.326Z,0.00
2024-05-09T01:58:16.318Z,0.00
2024-05-09T01:59:16.351Z,0.00
2024-05-09T02:00:25.851Z,0.00
2024-05-09T02:01:17.434Z,0.00
2024-05-09T02:02:16.504Z,0.00
2024-05-09T02:03:17.766Z,0.00
2024-05-09T02:04:16.685Z,0.00
2024-05-09T02:05:16.513Z,0.00
2024-05-09T02:06:16.326Z,0.00
2024-05-09T02:07:16.206Z,0.00
2024-05-09T02:08:16.602Z,0.00
2024-05-09T02:09:16.196Z,0.00
2024-05-09T02:10:20.578Z,0.00
2024-05-09T02:11:17.261Z,0.00
2024-05-09T02:12:16.347Z,0.00
2024-05-09T02:13:16.664Z,0.00
2024-05-09T02:14:16.239Z,0.00
2024-05-09T02:15:16.116Z,0.00
2024-05-09T02:16:16.115Z,0.00
2024-05-09T02:17:16.333Z,0.00
2024-05-09T02:18:16.275Z,0.00
2024-05-09T02:19:16.240Z,0.00
2024-05-09T02:20:22.743Z,0.00
2024-05-09T02:21:17.114Z,0.00
2024-05-09T02:22:16.075Z,0.00
2024-05-09T02:23:16.061Z,0.00
2024-05-09T02:24:16.022Z,0.00
2024-05-09T02:25:16.015Z,0.00
2024-05-09T02:26:16.200Z,0.00
2024-05-09T02:27:15.997Z,0.00
2024-05-09T02:28:15.979Z,0.00
2024-05-09T02:29:16.060Z,0.00
2024-05-09T02:30:25.430Z,0.00
2024-05-09T02:31:16.942Z,0.00
2024-05-09T02:32:16.064Z,0.00
2024-05-09T02:33:16.062Z,0.00
2024-05-09T02:34:15.994Z,0.00
2024-05-09T02:35:16.060Z,0.00
2024-05-09T02:36:15.897Z,0.00
2024-05-09T02:37:15.902Z,0.00
2024-05-09T02:38:15.993Z,0.00
2024-05-09T02:39:15.878Z,0.00
2024-05-09T02:40:21.644Z,0.00
2024-05-09T02:41:16.920Z,0.00
2024-05-09T02:42:15.829Z,0.00
2024-05-09T02:43:15.814Z,0.00
2024-05-09T02:44:15.905Z,0.00
2024-05-09T02:45:15.806Z,0.00
2024-05-09T02:46:15.783Z,0.00
2024-05-09T02:47:15.881Z,0.00
2024-05-09T02:48:15.982Z,0.00
2024-05-09T02:49:15.965Z,0.00
2024-05-09T02:50:23.029Z,0.00
2024-05-09T02:51:16.805Z,0.00
2024-05-09T02:52:15.722Z,0.00
2024-05-09T02:53:15.755Z,0.00
2024-05-09T02:54:15.704Z,0.00
2024-05-09T02:55:15.690Z,0.00
2024-05-09T02:56:15.754Z,0.00
2024-05-09T02:57:15.678Z,0.00
2024-05-09T02:58:15.660Z,0.00
2024-05-09T02:59:15.769Z,0.00
2024-05-09T03:00:22.544Z,0.00
2024-05-09T03:01:16.697Z,0.00
2024-05-09T03:02:15.718Z,0.00
2024-05-09T03:03:16.019Z,0.00
2024-05-09T03:04:15.659Z,0.00
2024-05-09T03:05:15.631Z,0.00
2024-05-09T03:06:15.574Z,0.00
2024-05-09T03:07:16.290Z,0.00
2024-05-09T03:08:15.586Z,0.00
2024-05-09T03:09:15.665Z,0.00
2024-05-09T03:10:22.242Z,0.00
2024-05-09T03:11:16.559Z,0.00
2024-05-09T03:12:15.532Z,0.00
2024-05-09T03:13:16.375Z,0.00
2024-05-09T03:14:15.506Z,0.00
2024-05-09T03:15:15.462Z,0.00
2024-05-09T03:16:15.491Z,0.00
2024-05-09T03:17:15.530Z,0.00
2024-05-09T03:18:15.784Z,0.00
2024-05-09T03:19:15.615Z,0.00
2024-05-09T03:20:20.721Z,0.00
2024-05-09T03:21:16.445Z,0.00
2024-05-09T03:22:15.390Z,0.00
2024-05-09T03:23:15.430Z,0.00
2024-05-09T03:24:15.368Z,0.00
2024-05-09T03:25:15.383Z,0.00
2024-05-09T03:26:15.374Z,0.00
2024-05-09T03:27:15.346Z,0.00
2024-05-09T03:28:15.343Z,0.00
2024-05-09T03:29:15.351Z,0.00
2024-05-09T03:30:28.825Z,0.00
2024-05-09T03:31:16.329Z,0.00
2024-05-09T03:32:15.372Z,0.00
2024-05-09T03:33:16.145Z,0.00
2024-05-09T03:34:15.263Z,0.00
2024-05-09T03:35:15.280Z,0.00
2024-05-09T03:36:15.232Z,0.00
2024-05-09T03:37:15.307Z,0.00
2024-05-09T03:38:15.419Z,0.00
2024-05-09T03:39:15.210Z,0.00
2024-05-09T03:40:20.869Z,0.00
2024-05-09T03:41:16.253Z,0.00
2024-05-09T03:42:15.170Z,0.00
2024-05-09T03:43:15.192Z,0.00
2024-05-09T03:44:15.186Z,0.00
2024-05-09T03:45:15.133Z,0.00
2024-05-09T03:46:15.139Z,0.00
2024-05-09T03:47:15.269Z,0.00
2024-05-09T03:48:15.352Z,0.00
2024-05-09T03:49:15.362Z,0.00
2024-05-09T03:50:22.155Z,0.00
2024-05-09T03:51:16.111Z,0.00
2024-05-09T03:52:15.072Z,0.00
2024-05-09T03:53:15.202Z,0.00
2024-05-09T03:54:15.037Z,0.00
2024-05-09T03:55:15.085Z,0.00
2024-05-09T03:56:15.069Z,5.62
2024-05-09T03:57:15.061Z,5.62
2024-05-09T03:58:15.010Z,5.62
2024-05-09T03:59:15.188Z,5.62
2024-05-09T04:00:21.938Z,5.62
2024-05-09T04:01:16.049Z,5.62
2024-05-09T04:02:15.206Z,5.62
2024-05-09T04:03:15.296Z,5.62
2024-05-09T04:04:15.018Z,5.62
2024-05-09T04:05:14.967Z,5.62
2024-05-09T04:06:14.911Z,11.25
2024-05-09T04:07:14.968Z,11.25
2024-05-09T04:08:15.393Z,11.25
2024-05-09T04:09:14.871Z,11.25
2024-05-09T04:10:23.970Z,11.25
2024-05-09T04:11:15.954Z,11.25
2024-05-09T04:12:14.952Z,16.88
2024-05-09T04:13:14.871Z,16.88
2024-05-09T04:14:14.865Z,16.88
2024-05-09T04:15:14.808Z,16.88
2024-05-09T04:16:14.798Z,16.88
2024-05-09T04:17:14.874Z,16.88
2024-05-09T04:18:14.879Z,22.50
2024-05-09T04:19:15.184Z,22.50
2024-05-09T04:20:24.293Z,22.50
2024-05-09T04:21:15.782Z,28.12
2024-05-09T04:22:14.741Z,28.12
2024-05-09T04:23:15.099Z,33.75
2024-05-09T04:24:14.709Z,33.75
2024-05-09T04:25:14.766Z,33.75
2024-05-09T04:26:14.712Z,33.75
2024-05-09T04:27:14.676Z,39.38
2024-05-09T04:28:14.786Z,39.38
2024-05-09T04:29:14.824Z,39.38
2024-05-09T04:30:21.740Z,39.38
2024-05-09T04:31:15.680Z,39.38
2024-05-09T04:32:14.706Z,39.38
2024-05-09T04:33:15.364Z,45.00
2024-05-09T04:34:14.827Z,45.00
2024-05-09T04:35:14.632Z,45.00
2024-05-09T04:36:14.597Z,45.00
2024-05-09T04:37:14.622Z,50.62
2024-05-09T04:38:15.304Z,50.62
2024-05-09T04:39:14.543Z,50.62
2024-05-09T04:40:24.211Z,56.25
2024-05-09T04:41:15.592Z,56.25
2024-05-09T04:42:14.511Z,56.25
2024-05-09T04:43:14.551Z,56.25
2024-05-09T04:44:14.532Z,56.25
2024-05-09T04:45:14.652Z,61.88
2024-05-09T04:46:14.486Z,61.88
2024-05-09T04:47:14.546Z,61.88
2024-05-09T04:48:14.751Z,67.50
2024-05-09T04:49:14.682Z,67.50
2024-05-09T04:50:21.211Z,67.50
2024-05-09T04:51:15.469Z,67.50
2024-05-09T04:52:14.402Z,73.12
2024-05-09T04:53:14.467Z,73.12
2024-05-09T04:54:26.048Z,78.75
2024-05-09T04:55:15.440Z,78.75
2024-05-09T04:56:14.485Z,84.38
2024-05-09T04:57:14.360Z,90.00
2024-05-09T04:58:14.338Z,90.00
2024-05-09T04:59:14.382Z,95.62
2024-05-09T05:00:18.090Z,95.62
2024-05-09T05:01:15.507Z,95.62
2024-05-09T05:02:14.391Z,95.62
2024-05-09T05:03:15.934Z,95.62
2024-05-09T05:04:14.385Z,101.25
2024-05-09T05:05:14.370Z,95.62
2024-05-09T05:06:14.281Z,106.88
2024-05-09T05:07:14.250Z,112.50
2024-05-09T05:08:14.819Z,112.50
2024-05-09T05:09:14.226Z,118.12
2024-05-09T05:10:21.431Z,118.12
2024-05-09T05:11:15.256Z,123.75
2024-05-09T05:12:14.316Z,129.38
2024-05-09T05:13:14.242Z,129.38
2024-05-09T05:14:14.232Z,129.38
2024-05-09T05:15:14.178Z,123.75
2024-05-09T05:16:14.155Z,118.12
2024-05-09T05:17:14.186Z,118.12
2024-05-09T05:18:14.199Z,118.12
2024-05-09T05:19:17.474Z,135.00
2024-05-09T05:20:17.944Z,135.00
2024-05-09T05:21:15.143Z,146.25
2024-05-09T05:22:14.066Z,157.50
2024-05-09T05:23:14.482Z,163.12
2024-05-09T05:24:14.048Z,163.12
2024-05-09T05:25:14.081Z,174.38
2024-05-09T05:26:14.056Z,191.25
2024-05-09T05:27:14.019Z,196.88
2024-05-09T05:28:14.017Z,208.12
2024-05-09T05:29:14.710Z,219.38
2024-05-09T05:30:21.156Z,225.00
2024-05-09T05:31:15.120Z,230.62
2024-05-09T05:32:14.183Z,236.25
2024-05-09T05:33:14.352Z,241.88
2024-05-09T05:34:14.037Z,236.25
2024-05-09T05:35:14.005Z,213.75
2024-05-09T05:36:13.937Z,213.75
2024-05-09T05:37:14.027Z,202.50
2024-05-09T05:38:13.981Z,208.12
2024-05-09T05:39:13.888Z,219.38
2024-05-09T05:40:24.618Z,236.25
2024-05-09T05:41:14.903Z,230.62
2024-05-09T05:42:13.858Z,225.00
2024-05-09T05:43:13.908Z,219.38
2024-05-09T05:44:13.879Z,208.12
2024-05-09T05:45:13.840Z,213.75
2024-05-09T05:46:13.815Z,236.25
2024-05-09T05:47:13.952Z,258.75
2024-05-09T05:48:14.256Z,286.88
2024-05-09T05:49:14.072Z,303.75
2024-05-09T05:50:23.799Z,298.12
2024-05-09T05:51:14.858Z,281.25
2024-05-09T05:52:13.783Z,286.88
2024-05-09T05:53:13.950Z,270.00
2024-05-09T05:54:13.723Z,320.62
2024-05-09T05:55:13.763Z,354.38
2024-05-09T05:56:13.825Z,410.62
2024-05-09T05:57:13.700Z,376.88
2024-05-09T05:58:13.683Z,365.62
2024-05-09T05:59:15.490Z,343.12
2024-05-09T06:01:13.777Z,309.38
2024-05-09T06:02:13.930Z,258.75
2024-05-09T06:03:14.334Z,247.50
2024-05-09T06:04:13.672Z,236.25
2024-05-09T06:05:13.792Z,230.62
2024-05-09T06:06:13.748Z,253.12
2024-05-09T06:07:13.661Z,286.88
2024-05-09T06:08:13.938Z,343.12
2024-05-09T06:09:13.690Z,337.50
2024-05-09T06:10:20.971Z,292.50
2024-05-09T06:11:14.661Z,253.12
2024-05-09T06:12:13.683Z,281.25
2024-05-09T06:13:14.370Z,264.38
2024-05-09T06:14:13.723Z,281.25
2024-05-09T06:15:13.525Z,337.50
2024-05-09T06:16:13.500Z,286.88
2024-05-09T06:17:13.588Z,264.38
2024-05-09T06:18:13.749Z,292.50
2024-05-09T06:19:13.691Z,309.38
2024-05-09T06:20:20.583Z,286.88
2024-05-09T06:21:14.617Z,258.75
2024-05-09T06:22:13.411Z,258.75
2024-05-09T06:23:13.683Z,258.75
2024-05-09T06:24:13.398Z,258.75
2024-05-09T06:25:13.423Z,258.75
2024-05-09T06:26:13.434Z,258.75
2024-05-09T06:27:13.361Z,253.12
2024-05-09T06:28:13.347Z,258.75
2024-05-09T06:29:13.374Z,264.38
2024-05-09T06:30:24.891Z,264.38
2024-05-09T06:31:14.396Z,258.75
2024-05-09T06:32:13.384Z,241.88
2024-05-09T06:33:15.529Z,241.88
2024-05-09T06:34:13.479Z,253.12
2024-05-09T06:35:13.313Z,264.38
2024-05-09T06:36:13.285Z,275.62
2024-05-09T06:37:13.303Z,286.88
2024-05-09T06:38:13.373Z,292.50
2024-05-09T06:39:13.230Z,298.12
2024-05-09T06:40:17.425Z,303.75
2024-05-09T06:41:13.286Z,309.38
2024-05-09T06:42:13.201Z,315.00
2024-05-09T06:43:13.342Z,320.62
2024-05-09T06:44:13.282Z,326.25
2024-05-09T06:45:13.166Z,326.25
2024-05-09T06:46:13.151Z,331.88
2024-05-09T06:47:13.239Z,326.25
2024-05-09T06:48:13.321Z,326.25
2024-05-09T06:49:13.348Z,320.62
2024-05-09T06:50:20.456Z,315.00
2024-05-09T06:51:14.221Z,303.75
2024-05-09T06:52:13.091Z,298.12
2024-05-09T06:53:13.117Z,298.12
2024-05-09T06:54:13.056Z,298.12
2024-05-09T06:55:13.102Z,309.38
2024-05-09T06:56:13.168Z,315.00
2024-05-09T06:57:13.037Z,320.62
2024-05-09T06:58:13.046Z,320.62
2024-05-09T06:59:13.057Z,320.62
2024-05-09T07:00:19.122Z,320.62
2024-05-09T07:01:14.087Z,326.25
2024-05-09T07:02:13.102Z,337.50
2024-05-09T07:03:15.287Z,337.50
2024-05-09T07:04:13.127Z,343.12
2024-05-09T07:05:13.052Z,354.38
2024-05-09T07:06:12.964Z,376.88
2024-05-09T07:07:12.952Z,393.75
2024-05-09T07:08:13.100Z,405.00
2024-05-09T07:09:12.930Z,416.25
2024-05-09T07:10:21.471Z,421.88
2024-05-09T07:11:14.107Z,427.50
2024-05-09T07:12:12.949Z,433.12
2024-05-09T07:13:13.243Z,438.75
2024-05-09T07:14:12.867Z,444.38
2024-05-09T07:15:12.835Z,444.38
2024-05-09T07:16:12.836Z,438.75
2024-05-09T07:17:12.901Z,433.12
2024-05-09T07:18:13.398Z,438.75
2024-05-09T07:19:13.019Z,450.00
2024-05-09T07:20:22.984Z,472.50
2024-05-09T07:21:13.932Z,495.00
2024-05-09T07:22:12.753Z,517.50
2024-05-09T07:23:13.089Z,551.25
2024-05-09T07:24:12.737Z,568.12
2024-05-09T07:25:12.870Z,579.38
2024-05-09T07:26:12.737Z,590.62
2024-05-09T07:27:12.734Z,579.38
2024-05-09T07:28:12.693Z,573.75
2024-05-09T07:29:12.697Z,568.12
2024-05-09T07:30:16.706Z,556.88
2024-05-09T07:31:13.717Z,562.50
2024-05-09T07:32:12.675Z,579.38
2024-05-09T07:33:12.796Z,590.62
2024-05-09T07:34:12.826Z,601.88
2024-05-09T07:35:12.641Z,618.75
2024-05-09T07:36:12.601Z,607.50
2024-05-09T07:37:12.812Z,607.50
2024-05-09T07:38:12.684Z,613.12
2024-05-09T07:39:12.582Z,635.62
2024-05-09T07:40:21.240Z,652.50
2024-05-09T07:41:13.643Z,680.62
2024-05-09T07:42:12.535Z,703.12
2024-05-09T07:43:12.576Z,720.00
2024-05-09T07:44:12.526Z,753.75
2024-05-09T07:45:29.825Z,736.88
2024-05-09T07:47:14.114Z,759.38
2024-05-09T07:48:28.064Z,753.75
2024-05-09T07:49:44.553Z,725.62
2024-05-09T07:50:55.380Z,669.38
2024-05-09T07:53:29.285Z,607.50
2024-05-09T07:53:37.292Z,596.25
2024-05-09T07:54:13.568Z,590.62
2024-05-09T07:55:12.517Z,585.00
2024-05-09T07:56:12.818Z,579.38
2024-05-09T07:57:12.420Z,573.75
2024-05-09T07:58:12.366Z,579.38
2024-05-09T07:59:12.351Z,579.38
2024-05-09T08:00:17.214Z,573.75
2024-05-09T08:01:13.471Z,573.75
2024-05-09T08:02:12.418Z,568.12
2024-05-09T08:03:12.398Z,556.88
2024-05-09T08:04:12.388Z,545.62
2024-05-09T08:05:12.496Z,534.38
2024-05-09T08:06:12.289Z,528.75
2024-05-09T08:07:12.344Z,528.75
2024-05-09T08:08:12.252Z,534.38
2024-05-09T08:09:16.971Z,545.62
2024-05-09T08:10:18.682Z,551.25
2024-05-09T08:11:13.264Z,556.88
2024-05-09T08:12:12.226Z,556.88
2024-05-09T08:13:12.351Z,556.88
2024-05-09T08:14:12.199Z,556.88
2024-05-09T08:15:12.176Z,556.88
2024-05-09T08:16:12.174Z,556.88
2024-05-09T08:17:12.291Z,556.88
2024-05-09T08:18:12.401Z,562.50
2024-05-09T08:19:12.359Z,573.75
2024-05-09T08:20:15.904Z,585.00
2024-05-09T08:21:13.136Z,590.62
2024-05-09T08:22:12.148Z,590.62
2024-05-09T08:23:12.087Z,596.25
2024-05-09T08:24:12.138Z,607.50
2024-05-09T08:25:13.981Z,613.12
2024-05-09T08:26:12.083Z,624.38
2024-05-09T08:27:12.045Z,641.25
2024-05-09T08:28:12.267Z,658.12
2024-05-09T08:29:12.057Z,663.75
2024-05-09T08:30:21.326Z,663.75
2024-05-09T08:31:13.083Z,663.75
2024-05-09T08:32:11.991Z,663.75
2024-05-09T08:33:12.036Z,675.00
2024-05-09T08:34:12.163Z,691.88
2024-05-09T08:35:11.973Z,703.12
2024-05-09T08:36:12.025Z,720.00
2024-05-09T08:37:19.424Z,731.25
2024-05-09T08:38:12.974Z,742.50
2024-05-09T08:39:11.929Z,759.38
2024-05-09T08:40:23.452Z,781.88
2024-05-09T08:41:12.892Z,815.62
2024-05-09T08:42:11.918Z,849.38
2024-05-09T08:43:12.999Z,888.75
2024-05-09T08:44:11.872Z,939.38
2024-05-09T08:45:11.863Z,950.62
2024-05-09T08:46:11.989Z,984.38
2024-05-09T08:47:11.853Z,1080.00
2024-05-09T08:48:11.990Z,1023.75
2024-05-09T08:50:24.059Z,973.12
2024-05-09T08:51:12.786Z,1001.25
2024-05-09T08:52:11.837Z,990.00
2024-05-09T08:53:11.761Z,1153.12
2024-05-09T08:54:11.782Z,1338.75
2024-05-09T08:55:11.784Z,2345.62
2024-05-09T08:56:11.916Z,1147.50
2024-05-09T08:57:11.714Z,1282.50
2024-05-09T08:58:11.898Z,3121.88
2024-05-09T08:59:11.710Z,1738.12
2024-05-09T09:00:15.107Z,2761.88
2024-05-09T09:01:12.805Z,2711.25
2024-05-09T09:02:11.825Z,2300.62
2024-05-09T09:03:11.755Z,2700.00
2024-05-09T09:04:11.746Z,2666.25
2024-05-09T09:05:11.798Z,2334.38
2024-05-09T09:06:11.752Z,2553.75
2024-05-09T09:07:11.623Z,2227.50
2024-05-09T09:08:11.592Z,3127.50
2024-05-09T09:09:11.586Z,2964.38
2024-05-09T09:10:17.602Z,2953.12
2024-05-09T09:11:12.661Z,2953.12
2024-05-09T09:12:11.582Z,2013.75
2024-05-09T09:13:11.681Z,1018.12
2024-05-09T09:14:11.543Z,1051.88
2024-05-09T09:15:11.527Z,1608.75
2024-05-09T09:16:11.659Z,2576.25
2024-05-09T09:17:11.568Z,3256.88
2024-05-09T09:18:12.435Z,3318.75
2024-05-09T09:19:11.691Z,3172.50
2024-05-09T09:20:16.437Z,3195.00
2024-05-09T09:21:12.452Z,3060.00
2024-05-09T09:22:11.617Z,2930.62
2024-05-09T09:23:11.452Z,2520.00
2024-05-09T09:24:11.456Z,2908.12
2024-05-09T09:25:11.641Z,2981.25
2024-05-09T09:26:11.395Z,2373.75
2024-05-09T09:27:11.388Z,2390.62
2024-05-09T09:28:11.415Z,3060.00
2024-05-09T09:29:11.370Z,2919.38
2024-05-09T09:30:22.604Z,2823.75
2024-05-09T09:31:12.365Z,2801.25
2024-05-09T09:32:11.339Z,2880.00
2024-05-09T09:33:11.796Z,3026.25
2024-05-09T09:34:11.606Z,2469.38
2024-05-09T09:35:11.294Z,2497.50
2024-05-09T09:36:11.730Z,2503.12
2024-05-09T09:37:11.506Z,2081.25
2024-05-09T09:38:11.344Z,1350.00
2024-05-09T09:39:11.253Z,1125.00
2024-05-09T09:40:13.300Z,1147.50
2024-05-09T09:41:11.380Z,860.62
2024-05-09T09:42:11.258Z,1276.88
2024-05-09T09:43:11.387Z,3088.12
2024-05-09T09:44:11.226Z,2902.50
2024-05-09T09:45:11.197Z,2750.62
2024-05-09T09:46:12.765Z,2756.25
2024-05-09T09:47:11.279Z,2778.75
2024-05-09T09:48:11.273Z,2823.75
2024-05-09T09:49:11.364Z,2756.25
2024-05-09T09:50:14.510Z,2733.75
2024-05-09T09:51:12.140Z,2767.50
2024-05-09T09:52:11.452Z,2598.75
2024-05-09T09:53:11.148Z,3054.38
2024-05-09T09:54:11.153Z,3318.75
2024-05-09T09:55:11.214Z,3397.50
2024-05-09T09:56:11.090Z,3043.12
2024-05-09T09:57:11.068Z,2851.88
2024-05-09T09:58:13.902Z,2964.38
2024-05-09T09:59:11.051Z,2823.75
2024-05-09T10:00:12.005Z,2649.38
2024-05-09T10:01:12.123Z,2632.50
2024-05-09T10:02:11.300Z,2947.50
2024-05-09T10:03:11.024Z,2261.25
2024-05-09T10:04:11.048Z,2857.50
2024-05-09T10:05:11.158Z,2986.88
2024-05-09T10:06:10.999Z,3223.12
2024-05-09T10:07:11.053Z,3048.75
2024-05-09T10:08:10.951Z,2818.12
2024-05-09T10:09:10.936Z,2525.62
2024-05-09T10:10:16.076Z,2030.62
2024-05-09T10:11:11.948Z,1530.00
2024-05-09T10:12:11.119Z,1659.38
2024-05-09T10:13:10.931Z,1805.62
2024-05-09T10:14:10.893Z,1839.38
2024-05-09T10:15:10.861Z,2396.25
2024-05-09T10:16:11.214Z,2401.88
2024-05-09T10:17:10.847Z,2424.38
2024-05-09T10:18:10.948Z,2480.62
2024-05-09T10:19:10.958Z,2604.38
2024-05-09T10:20:18.332Z,2722.50
2024-05-09T10:21:11.797Z,2812.50
2024-05-09T10:22:10.872Z,2925.00
2024-05-09T10:23:10.776Z,3127.50
2024-05-09T10:24:10.783Z,3240.00
2024-05-09T10:25:10.784Z,2992.50
2024-05-09T10:26:10.758Z,3195.00
2024-05-09T10:27:10.721Z,3465.00
2024-05-09T10:28:10.862Z,3110.62
2024-05-09T10:29:10.712Z,2705.62
2024-05-09T10:30:17.669Z,2728.12
2024-05-09T10:31:11.918Z,2486.25
2024-05-09T10:32:10.693Z,2514.38
2024-05-09T10:33:10.738Z,2520.00
2024-05-09T10:34:10.874Z,2632.50
2024-05-09T10:35:10.727Z,2846.25
2024-05-09T10:36:10.669Z,3009.38
2024-05-09T10:37:10.719Z,3380.62
2024-05-09T10:38:10.608Z,3538.12
2024-05-09T10:39:10.586Z,3161.25
2024-05-09T10:40:17.256Z,2953.12
2024-05-09T10:41:11.563Z,2908.12
2024-05-09T10:42:10.582Z,2660.62
2024-05-09T10:43:10.571Z,2576.25
2024-05-09T10:44:10.549Z,2728.12
2024-05-09T10:45:10.531Z,2919.38
2024-05-09T10:46:10.758Z,3099.38
2024-05-09T10:47:10.535Z,3189.38
2024-05-09T10:48:10.606Z,3082.50
2024-05-09T10:49:10.558Z,2761.88
2024-05-09T10:50:18.484Z,2953.12
2024-05-09T10:51:11.455Z,3380.62
2024-05-09T10:52:10.503Z,3493.12
2024-05-09T10:53:10.470Z,3341.25
2024-05-09T10:54:10.452Z,3150.00
2024-05-09T10:55:10.481Z,3155.62
2024-05-09T10:56:10.425Z,2958.75
2024-05-09T10:57:10.402Z,2756.25
2024-05-09T10:58:10.461Z,2615.62
2024-05-09T10:59:10.408Z,2610.00
2024-05-09T11:00:18.903Z,2604.38
2024-05-09T11:01:11.662Z,2486.25
2024-05-09T11:02:10.608Z,2610.00
2024-05-09T11:03:10.343Z,2975.62
2024-05-09T11:04:10.464Z,2930.62
2024-05-09T11:05:10.596Z,2784.38
2024-05-09T11:06:10.336Z,2728.12
2024-05-09T11:07:10.347Z,2711.25
2024-05-09T11:08:10.272Z,2863.12
2024-05-09T11:09:10.265Z,2863.12
2024-05-09T11:10:12.634Z,2896.88
2024-05-09T11:11:10.238Z,2835.00
2024-05-09T11:12:10.261Z,2846.25
2024-05-09T11:13:10.280Z,2953.12
2024-05-09T11:14:10.207Z,2919.38
2024-05-09T11:15:10.196Z,2908.12
2024-05-09T11:16:10.292Z,2846.25
2024-05-09T11:17:10.268Z,2688.75
2024-05-09T11:18:10.255Z,2868.75
2024-05-09T11:19:10.260Z,3279.38
2024-05-09T11:20:16.744Z,3262.50
2024-05-09T11:21:11.231Z,3060.00
2024-05-09T11:22:10.153Z,2868.75
2024-05-09T11:23:10.132Z,2711.25
2024-05-09T11:24:11.555Z,2643.75
2024-05-09T11:25:10.267Z,2739.38
2024-05-09T11:26:10.081Z,2874.38
2024-05-09T11:27:10.079Z,2874.38
2024-05-09T11:28:10.167Z,2745.00
2024-05-09T11:29:10.040Z,2739.38
2024-05-09T11:30:17.236Z,2559.38
2024-05-09T11:31:11.266Z,2570.62
2024-05-09T11:32:10.069Z,2548.12
2024-05-09T11:33:10.006Z,2508.75
2024-05-09T11:34:10.049Z,2593.12
2024-05-09T11:35:09.991Z,2576.25
2024-05-09T11:36:10.003Z,2688.75
2024-05-09T11:37:10.042Z,2992.50
2024-05-09T11:38:09.944Z,3037.50
2024-05-09T11:39:09.932Z,2986.88
2024-05-09T11:40:16.803Z,3256.88
2024-05-09T11:41:10.934Z,3313.12
2024-05-09T11:42:09.936Z,2964.38
2024-05-09T11:43:09.982Z,2756.25
2024-05-09T11:44:09.879Z,2840.62
2024-05-09T11:45:09.866Z,2756.25
2024-05-09T11:46:09.901Z,2497.50
2024-05-09T11:47:09.889Z,2536.88
2024-05-09T11:48:09.960Z,2711.25
2024-05-09T11:49:10.106Z,2750.62
2024-05-09T11:50:16.009Z,2688.75
2024-05-09T11:51:10.815Z,2604.38
2024-05-09T11:52:09.853Z,2418.75
2024-05-09T11:53:09.778Z,2458.12
2024-05-09T11:54:09.788Z,2823.75
2024-05-09T11:55:09.883Z,2761.88
2024-05-09T11:56:09.747Z,2396.25
2024-05-09T11:57:09.748Z,2328.75
2024-05-09T11:58:09.902Z,2638.12
2024-05-09T11:59:09.711Z,2733.75
2024-05-09T12:00:14.773Z,2531.25
2024-05-09T12:01:10.775Z,2761.88
2024-05-09T12:02:10.042Z,2930.62
2024-05-09T12:03:09.689Z,2705.62
2024-05-09T12:04:09.851Z,2576.25
2024-05-09T12:05:09.849Z,2424.38
2024-05-09T12:06:09.717Z,2289.38
2024-05-09T12:07:12.759Z,2278.12
2024-05-09T12:08:09.620Z,2373.75
2024-05-09T12:09:09.606Z,2480.62
2024-05-09T12:10:16.496Z,2649.38
2024-05-09T12:11:10.677Z,2463.75
2024-05-09T12:12:09.597Z,2306.25
2024-05-09T12:13:09.625Z,2311.88
2024-05-09T12:14:09.589Z,2379.38
2024-05-09T12:15:09.580Z,2351.25
2024-05-09T12:16:09.673Z,2278.12
2024-05-09T12:17:09.577Z,2340.00
2024-05-09T12:18:09.585Z,2396.25
2024-05-09T12:19:09.927Z,2430.00
2024-05-09T12:20:17.434Z,2413.12
2024-05-09T12:21:10.469Z,2362.50
2024-05-09T12:22:09.638Z,2548.12
2024-05-09T12:23:10.495Z,2739.38
2024-05-09T12:24:09.432Z,2424.38
2024-05-09T12:25:09.593Z,2272.50
2024-05-09T12:26:09.416Z,2401.88
2024-05-09T12:27:09.402Z,2475.00
2024-05-09T12:28:09.507Z,2340.00
2024-05-09T12:29:09.408Z,2283.75
2024-05-09T12:30:14.129Z,2283.75
2024-05-09T12:31:09.398Z,2255.62
2024-05-09T12:32:09.457Z,2362.50
2024-05-09T12:33:09.854Z,2520.00
2024-05-09T12:34:09.407Z,2379.38
2024-05-09T12:35:09.363Z,2266.88
2024-05-09T12:36:09.310Z,2266.88
2024-05-09T12:37:09.359Z,2351.25
2024-05-09T12:38:09.320Z,2401.88
2024-05-09T12:39:09.286Z,2407.50
2024-05-09T12:40:18.455Z,2491.88
2024-05-09T12:41:10.274Z,2497.50
2024-05-09T12:42:11.018Z,2441.25